Time;durP1;ratioP1;P1;durP2;ratioP2;P2;SDS_P1;SDS_P2;PMS_P1;PMS_P2;Temp;Humidity;BMP_temperature;BMP_pressure;BME280_temperature;BME280_humidity;BME280_pressure;Samples;Min_cycle;Max_cycle;Signal;HPM_P1;HPM_P2
2022/12/31 00:01:05;;;;;;;;;;;17.20;69.20;;;;;;10252113;28;94437;-63
2022/12/31 00:06:26;;;;;;;;;;;17.20;69.30;;;;;;10251712;28;94780;-63
2022/12/31 00:11:28;;;;;;;;;;;17.20;69.40;;;;;;10248242;28;95928;-63
2022/12/31 00:16:32;;;;;;;;;;;17.10;69.30;;;;;;10250385;28;94317;-63
2022/12/31 00:21:34;;;;;;;;;;;17.10;69.30;;;;;;10250430;28;94415;-63
2022/12/31 00:26:36;;;;;;;;;;;17.20;69.50;;;;;;10250492;28;94748;-63
2022/12/31 00:31:38;;;;;;;;;;;17.10;69.40;;;;;;10249526;28;93595;-63
2022/12/31 00:36:41;;;;;;;;;;;17.10;69.30;;;;;;10250316;28;94223;-62
2022/12/31 00:41:43;;;;;;;;;;;17.10;69.30;;;;;;10250654;28;94545;-63
2022/12/31 00:46:44;;;;;;;;;;;17.10;69.30;;;;;;10251372;28;93718;-63
2022/12/31 00:51:46;;;;;;;;;;;17.00;69.10;;;;;;10250387;28;94366;-62
2022/12/31 00:56:48;;;;;;;;;;;17.00;69.10;;;;;;10249446;28;93346;-62
2022/12/31 01:01:50;;;;;;;;;;;17.00;69.10;;;;;;10247320;28;95900;-63
2022/12/31 01:06:51;;;;;;;;;;;17.00;69.20;;;;;;10249092;28;92508;-63
2022/12/31 01:11:53;;;;;;;;;;;16.90;69.10;;;;;;10264389;28;93382;-63
2022/12/31 01:16:55;;;;;;;;;;;16.90;69.10;;;;;;10263911;28;94595;-63
2022/12/31 01:21:56;;;;;;;;;;;16.90;69.10;;;;;;10248374;28;93661;-63
2022/12/31 01:26:58;;;;;;;;;;;16.90;69.20;;;;;;10251117;28;93930;-63
2022/12/31 01:32:00;;;;;;;;;;;16.90;69.20;;;;;;10254282;28;93410;-63
2022/12/31 01:37:01;;;;;;;;;;;16.80;69.10;;;;;;10256101;28;93757;-63
2022/12/31 01:42:03;;;;;;;;;;;16.80;69.10;;;;;;10255425;28;92831;-62
2022/12/31 01:47:10;;;;;;;;;;;16.80;69.10;;;;;;10256312;28;94014;-62
2022/12/31 01:52:21;;;;;;;;;;;16.80;69.20;;;;;;10253538;28;95006;-63
2022/12/31 01:57:23;;;;;;;;;;;16.80;69.10;;;;;;10255647;28;94816;-63
2022/12/31 02:02:25;;;;;;;;;;;16.70;69.10;;;;;;10688538;22;96017;-62
2022/12/31 02:07:27;;;;;;;;;;;16.70;69.20;;;;;;10248196;28;95468;-61
2022/12/31 02:12:28;;;;;;;;;;;16.70;69.20;;;;;;10253234;28;94505;-62
2022/12/31 02:17:30;;;;;;;;;;;16.70;69.20;;;;;;10253228;28;94438;-62
2022/12/31 02:22:50;;;;;;;;;;;16.70;69.10;;;;;;10252355;28;93339;-61
2022/12/31 02:28:04;;;;;;;;;;;16.70;69.20;;;;;;10253338;28;92251;-62
2022/12/31 02:33:13;;;;;;;;;;;16.70;69.20;;;;;;10253067;28;94438;-63
2022/12/31 02:38:18;;;;;;;;;;;16.70;69.20;;;;;;10266422;28;93982;-62
2022/12/31 02:43:20;;;;;;;;;;;16.70;69.20;;;;;;10249922;28;96952;-62
2022/12/31 02:48:30;;;;;;;;;;;16.70;69.20;;;;;;10250978;28;94959;-62
2022/12/31 02:53:55;;;;;;;;;;;16.60;69.20;;;;;;10250033;28;94273;-61
2022/12/31 03:04:31;;;;;;;;;;;16.60;69.10;;;;;;10247751;28;93947;-62
2022/12/31 03:09:33;;;;;;;;;;;16.60;69.20;;;;;;10251141;28;93719;-62
2022/12/31 03:14:35;;;;;;;;;;;16.60;69.30;;;;;;10250264;28;93368;-63
2022/12/31 03:30:17;;;;;;;;;;;16.60;69.30;;;;;;10250353;28;92992;-62
2022/12/31 03:35:20;;;;;;;;;;;16.60;69.30;;;;;;10248047;28;96968;-62
2022/12/31 03:40:23;;;;;;;;;;;16.60;69.30;;;;;;10250047;28;94652;-62
2022/12/31 03:45:24;;;;;;;;;;;16.60;69.30;;;;;;10250250;28;93515;-62
2022/12/31 03:50:26;;;;;;;;;;;16.60;69.30;;;;;;10248186;28;93256;-62
2022/12/31 03:55:28;;;;;;;;;;;16.60;69.30;;;;;;10264251;28;93312;-62
2022/12/31 04:00:29;;;;;;;;;;;16.60;69.20;;;;;;10264336;28;94622;-61
2022/12/31 04:05:32;;;;;;;;;;;16.50;69.20;;;;;;10248819;28;96053;-61
2022/12/31 04:10:34;;;;;;;;;;;16.50;69.20;;;;;;10249855;28;92938;-62
2022/12/31 04:15:35;;;;;;;;;;;16.50;69.30;;;;;;10248325;28;93401;-62
2022/12/31 04:20:37;;;;;;;;;;;16.50;69.30;;;;;;10248681;28;93892;-61
2022/12/31 04:25:38;;;;;;;;;;;16.50;69.30;;;;;;10260933;28;95860;-61
2022/12/31 04:30:40;;;;;;;;;;;16.50;69.30;;;;;;10248071;28;93597;-62
2022/12/31 04:35:42;;;;;;;;;;;16.50;69.30;;;;;;10263857;28;93400;-62
2022/12/31 06:03:22;;;;;;;;;;;16.90;68.90;;;;;;10199385;28;93420;-62
2022/12/31 06:08:23;;;;;;;;;;;17.10;68.20;;;;;;10246680;28;93285;-63
2022/12/31 06:13:25;;;;;;;;;;;17.30;68.10;;;;;;10247458;28;93256;-62
2022/12/31 06:18:27;;;;;;;;;;;17.30;68.00;;;;;;10251795;28;93490;-62
2022/12/31 06:23:28;;;;;;;;;;;17.30;67.90;;;;;;10249937;28;96862;-63
2022/12/31 06:28:30;;;;;;;;;;;17.30;68.00;;;;;;10252069;28;93968;-63
2022/12/31 06:33:32;;;;;;;;;;;17.30;69.10;;;;;;10252068;28;94207;-63
2022/12/31 06:38:36;;;;;;;;;;;17.30;68.20;;;;;;10251221;28;93241;-63
2022/12/31 06:43:38;;;;;;;;;;;17.40;68.40;;;;;;10251283;28;93482;-62
2022/12/31 06:48:42;;;;;;;;;;;17.40;68.30;;;;;;10266905;28;94068;-62
2022/12/31 06:53:44;;;;;;;;;;;17.40;68.30;;;;;;10251808;28;94096;-62
2022/12/31 06:58:46;;;;;;;;;;;17.40;68.30;;;;;;10251806;28;93261;-62
2022/12/31 07:04:15;;;;;;;;;;;17.40;68.40;;;;;;10250206;28;94447;-62
2022/12/31 07:09:38;;;;;;;;;;;17.40;68.50;;;;;;10250821;28;94514;-62
2022/12/31 07:14:44;;;;;;;;;;;17.40;68.60;;;;;;10249302;28;96247;-62
2022/12/31 07:19:51;;;;;;;;;;;17.40;68.60;;;;;;10250725;28;93303;-62
2022/12/31 07:24:58;;;;;;;;;;;17.40;68.80;;;;;;10250633;28;93458;-63
2022/12/31 07:30:06;;;;;;;;;;;17.40;68.90;;;;;;10249707;28;93936;-62
2022/12/31 07:35:14;;;;;;;;;;;17.40;69.10;;;;;;10265965;28;93870;-62
2022/12/31 07:40:19;;;;;;;;;;;17.30;69.20;;;;;;10249323;28;93977;-62
2022/12/31 07:45:39;;;;;;;;;;;17.30;69.50;;;;;;10249584;28;93649;-62
2022/12/31 07:50:41;;;;;;;;;;;17.40;69.70;;;;;;10250178;28;93036;-63
2022/12/31 07:55:43;;;;;;;;;;;17.40;69.70;;;;;;10249250;28;93831;-63
2022/12/31 08:00:45;;;;;;;;;;;17.40;69.80;;;;;;10249804;28;93683;-63
2022/12/31 08:05:51;;;;;;;;;;;17.40;70.00;;;;;;10246259;28;95945;-63
2022/12/31 08:11:04;;;;;;;;;;;17.30;70.00;;;;;;10249080;28;94346;-63
2022/12/31 08:16:09;;;;;;;;;;;17.30;70.30;;;;;;10248332;28;93334;-61
2022/12/31 08:21:34;;;;;;;;;;;17.30;71.30;;;;;;10260994;28;93548;-62
2022/12/31 08:26:42;;;;;;;;;;;17.30;71.00;;;;;;10242925;28;94456;-61
2022/12/31 08:32:05;;;;;;;;;;;17.30;71.60;;;;;;10247613;28;93673;-61
2022/12/31 08:37:09;;;;;;;;;;;17.40;71.70;;;;;;10246807;28;94435;-61
2022/12/31 08:42:28;;;;;;;;;;;17.50;72.60;;;;;;10263230;28;93216;-61
2022/12/31 08:47:36;;;;;;;;;;;17.60;74.80;;;;;;10247570;28;93459;-61
2022/12/31 08:52:39;;;;;;;;;;;18.10;72.60;;;;;;10247731;28;93320;-62
2022/12/31 08:57:47;;;;;;;;;;;18.40;71.50;;;;;;10244498;28;96090;-62
2022/12/31 09:03:05;;;;;;;;;;;18.40;71.70;;;;;;10247436;28;93323;-62
2022/12/31 09:08:19;;;;;;;;;;;18.20;71.80;;;;;;10261787;28;94309;-62
2022/12/31 09:13:20;;;;;;;;;;;18.10;71.80;;;;;;10248018;28;94460;-61
2022/12/31 09:18:23;;;;;;;;;;;18.00;71.60;;;;;;10246397;28;93429;-61
2022/12/31 09:23:33;;;;;;;;;;;17.90;71.60;;;;;;10246110;28;94625;-62
2022/12/31 09:28:43;;;;;;;;;;;17.70;71.50;;;;;;10245912;28;94516;-61
2022/12/31 09:33:50;;;;;;;;;;;17.70;71.70;;;;;;10262604;28;93896;-61
2022/12/31 09:38:56;;;;;;;;;;;17.60;71.60;;;;;;10245929;28;93523;-61
2022/12/31 09:44:12;;;;;;;;;;;17.60;71.60;;;;;;10245966;28;94551;-61
2022/12/31 09:49:14;;;;;;;;;;;17.50;71.70;;;;;;10247584;28;96617;-61
2022/12/31 09:54:19;;;;;;;;;;;17.50;72.00;;;;;;10253018;28;93113;-61
2022/12/31 09:59:25;;;;;;;;;;;17.50;71.90;;;;;;10253610;28;93555;-61
2022/12/31 10:04:38;;;;;;;;;;;17.50;71.90;;;;;;10252980;28;93259;-61
2022/12/31 10:09:42;;;;;;;;;;;17.60;71.90;;;;;;10252714;28;114603;-62
2022/12/31 10:14:44;;;;;;;;;;;17.60;71.90;;;;;;10267272;28;94300;-62
2022/12/31 10:19:54;;;;;;;;;;;17.60;71.80;;;;;;10252333;28;94500;-62
2022/12/31 10:25:01;;;;;;;;;;;17.60;71.80;;;;;;10253265;28;92822;-62
2022/12/31 10:30:12;;;;;;;;;;;17.60;71.90;;;;;;10253043;28;93282;-62
2022/12/31 10:35:19;;;;;;;;;;;17.60;72.00;;;;;;10251880;28;94191;-61
2022/12/31 10:40:37;;;;;;;;;;;17.60;72.00;;;;;;10249256;28;95788;-62
2022/12/31 10:45:39;;;;;;;;;;;17.60;71.90;;;;;;10251872;28;93191;-61
2022/12/31 10:50:47;;;;;;;;;;;17.60;73.20;;;;;;10266922;28;92531;-62
2022/12/31 10:55:57;;;;;;;;;;;17.60;72.80;;;;;;10266023;28;93495;-62
2022/12/31 11:01:02;;;;;;;;;;;17.60;72.70;;;;;;10250996;28;93684;-62
2022/12/31 11:06:23;;;;;;;;;;;17.60;73.10;;;;;;10265452;28;94450;-62
2022/12/31 11:11:27;;;;;;;;;;;17.60;73.20;;;;;;10265105;28;93486;-62
2022/12/31 11:16:47;;;;;;;;;;;17.60;73.40;;;;;;10251040;28;93014;-62
2022/12/31 11:21:49;;;;;;;;;;;17.60;73.30;;;;;;10248479;28;93476;-62
2022/12/31 11:27:02;;;;;;;;;;;17.60;73.30;;;;;;10265556;28;94441;-63
2022/12/31 11:32:15;;;;;;;;;;;17.60;73.40;;;;;;10248381;28;96807;-62
2022/12/31 11:37:35;;;;;;;;;;;17.50;73.40;;;;;;10250118;28;93337;-62
2022/12/31 11:42:54;;;;;;;;;;;17.50;73.50;;;;;;10249709;28;93625;-62
2022/12/31 11:48:03;;;;;;;;;;;17.50;73.70;;;;;;10249640;28;93822;-62
2022/12/31 11:53:50;;;;;;;;;;;17.50;73.80;;;;;;10249980;28;96376;-62
2022/12/31 11:58:52;;;;;;;;;;;17.40;73.80;;;;;;10249231;28;93512;-62
2022/12/31 12:03:54;;;;;;;;;;;17.40;73.80;;;;;;10249115;28;93936;-62
2022/12/31 12:08:58;;;;;;;;;;;17.30;74.00;;;;;;10250034;28;93786;-62
2022/12/31 12:14:00;;;;;;;;;;;17.30;74.20;;;;;;10248053;28;93625;-62
2022/12/31 12:19:03;;;;;;;;;;;17.30;74.60;;;;;;10248505;28;93738;-63
2022/12/31 12:24:17;;;;;;;;;;;17.30;74.70;;;;;;10248400;28;96071;-62
2022/12/31 12:29:20;;;;;;;;;;;17.30;74.80;;;;;;10248889;28;92499;-63
2022/12/31 12:34:42;;;;;;;;;;;17.30;75.10;;;;;;10249993;28;93806;-62
2022/12/31 12:39:58;;;;;;;;;;;17.20;75.40;;;;;;10264825;28;93461;-62
2022/12/31 12:45:19;;;;;;;;;;;17.20;75.60;;;;;;10251669;28;94435;-61
2022/12/31 12:50:22;;;;;;;;;;;17.30;76.20;;;;;;10265460;28;94713;-63
2022/12/31 12:55:34;;;;;;;;;;;17.20;77.50;;;;;;10250840;28;93497;-63
2022/12/31 13:00:49;;;;;;;;;;;17.30;77.10;;;;;;10251387;28;92535;-63
2022/12/31 13:06:05;;;;;;;;;;;17.30;79.40;;;;;;10250073;28;94643;-62
2022/12/31 13:11:07;;;;;;;;;;;17.30;77.60;;;;;;10250068;28;93081;-62
2022/12/31 13:16:25;;;;;;;;;;;17.30;77.70;;;;;;10246700;28;96194;-62
2022/12/31 13:21:27;;;;;;;;;;;17.30;77.50;;;;;;10250004;28;93802;-62
2022/12/31 13:26:36;;;;;;;;;;;17.20;77.30;;;;;;10248475;28;93292;-61
2022/12/31 13:31:38;;;;;;;;;;;17.20;77.20;;;;;;10249355;28;93449;-62
2022/12/31 13:36:41;;;;;;;;;;;17.10;77.10;;;;;;10263522;28;93662;-62
2022/12/31 13:41:48;;;;;;;;;;;17.10;76.90;;;;;;10249318;28;93689;-62
2022/12/31 13:46:57;;;;;;;;;;;17.10;77.10;;;;;;10262337;28;93465;-62
2022/12/31 13:52:17;;;;;;;;;;;17.10;76.90;;;;;;10249561;28;92878;-62
2022/12/31 13:57:28;;;;;;;;;;;17.10;76.70;;;;;;10248753;28;93790;-61
2022/12/31 14:02:39;;;;;;;;;;;17.10;76.90;;;;;;10249156;28;94433;-62
2022/12/31 14:07:51;;;;;;;;;;;17.10;76.90;;;;;;10246275;28;95809;-61
2022/12/31 14:12:58;;;;;;;;;;;17.10;77.00;;;;;;10248286;28;94180;-61
2022/12/31 14:18:05;;;;;;;;;;;17.00;77.00;;;;;;10248825;28;94190;-62
2022/12/31 14:23:18;;;;;;;;;;;17.00;76.90;;;;;;10248530;28;94254;-62
2022/12/31 14:28:25;;;;;;;;;;;17.00;77.00;;;;;;10248225;28;94400;-62
2022/12/31 14:33:32;;;;;;;;;;;17.00;77.20;;;;;;10248321;28;93536;-62
2022/12/31 14:38:48;;;;;;;;;;;17.00;77.20;;;;;;10254939;28;94128;-62
2022/12/31 14:43:53;;;;;;;;;;;17.00;77.20;;;;;;10270668;28;93889;-62
2022/12/31 14:49:02;;;;;;;;;;;17.00;77.10;;;;;;10254571;28;93441;-62
2022/12/31 14:54:03;;;;;;;;;;;17.00;77.10;;;;;;10254056;28;94084;-62
2022/12/31 14:59:24;;;;;;;;;;;17.00;77.00;;;;;;10252021;28;95992;-62
2022/12/31 15:04:44;;;;;;;;;;;17.00;77.00;;;;;;10253339;28;93104;-61
2022/12/31 15:09:48;;;;;;;;;;;16.90;77.00;;;;;;10253731;28;93613;-61
2022/12/31 15:15:07;;;;;;;;;;;16.90;77.00;;;;;;10253989;28;94623;-61
2022/12/31 15:20:14;;;;;;;;;;;16.90;76.90;;;;;;10252808;28;93308;-61
2022/12/31 15:25:36;;;;;;;;;;;16.90;77.00;;;;;;10252555;28;93445;-61
2022/12/31 15:30:46;;;;;;;;;;;16.90;76.80;;;;;;10252793;28;93370;-61
2022/12/31 15:35:49;;;;;;;;;;;16.90;76.80;;;;;;10253443;28;92053;-61
2022/12/31 15:40:51;;;;;;;;;;;16.90;76.80;;;;;;10253078;28;93621;-61
2022/12/31 15:45:54;;;;;;;;;;;16.80;76.70;;;;;;10251838;28;94446;-62
2022/12/31 15:50:57;;;;;;;;;;;16.80;76.70;;;;;;10249426;28;96057;-62
2022/12/31 15:56:00;;;;;;;;;;;16.90;76.70;;;;;;10266330;28;93435;-62
2022/12/31 16:01:17;;;;;;;;;;;16.80;76.70;;;;;;10266681;28;93665;-62
2022/12/31 16:06:19;;;;;;;;;;;16.80;76.70;;;;;;10251812;28;93463;-62
2022/12/31 16:11:21;;;;;;;;;;;16.80;76.70;;;;;;10250604;28;93469;-62
2022/12/31 16:16:30;;;;;;;;;;;16.80;76.60;;;;;;10251410;28;93491;-62
2022/12/31 16:21:33;;;;;;;;;;;16.80;76.70;;;;;;10267152;28;93501;-61
2022/12/31 16:26:42;;;;;;;;;;;16.80;76.80;;;;;;10252586;28;93662;-62
2022/12/31 16:31:44;;;;;;;;;;;16.80;76.70;;;;;;10265992;28;95135;-61
2022/12/31 16:37:05;;;;;;;;;;;16.80;76.60;;;;;;10250895;28;93561;-61
2022/12/31 16:42:07;;;;;;;;;;;16.80;76.70;;;;;;10248157;28;96409;-62
2022/12/31 16:47:13;;;;;;;;;;;16.80;76.60;;;;;;10266174;28;93041;-62
2022/12/31 16:52:26;;;;;;;;;;;16.70;76.60;;;;;;10249908;28;94442;-62
2022/12/31 16:57:29;;;;;;;;;;;16.80;76.60;;;;;;10250204;28;92542;-61
2022/12/31 17:02:38;;;;;;;;;;;16.80;76.60;;;;;;10249745;28;94408;-61
2022/12/31 17:07:41;;;;;;;;;;;16.70;76.60;;;;;;10249783;28;93484;-61
2022/12/31 17:12:44;;;;;;;;;;;16.70;76.50;;;;;;10249777;28;94206;-61
2022/12/31 17:18:07;;;;;;;;;;;16.70;76.50;;;;;;10263574;28;94006;-61
2022/12/31 17:23:13;;;;;;;;;;;16.70;76.50;;;;;;10250062;28;92942;-61
2022/12/31 17:28:24;;;;;;;;;;;16.70;76.60;;;;;;10264354;28;93566;-61
2022/12/31 17:33:27;;;;;;;;;;;16.70;76.50;;;;;;10247831;28;96737;-61
2022/12/31 17:38:30;;;;;;;;;;;16.60;76.50;;;;;;10249306;28;93457;-61
2022/12/31 17:43:35;;;;;;;;;;;16.70;76.50;;;;;;10248621;28;93416;-61
2022/12/31 17:48:37;;;;;;;;;;;16.60;76.40;;;;;;10248752;28;94933;-61
2022/12/31 17:53:39;;;;;;;;;;;16.70;76.40;;;;;;10249749;28;94511;-61
2022/12/31 17:58:42;;;;;;;;;;;16.60;76.30;;;;;;10263451;28;93300;-61
2022/12/31 18:03:44;;;;;;;;;;;16.60;76.20;;;;;;10248286;28;93367;-61
2022/12/31 18:08:45;;;;;;;;;;;16.60;76.30;;;;;;10249731;28;92750;-62
2022/12/31 18:13:47;;;;;;;;;;;16.70;76.30;;;;;;10255531;28;93897;-62
2022/12/31 18:18:49;;;;;;;;;;;16.60;76.10;;;;;;10270761;28;94431;-62
2022/12/31 18:23:51;;;;;;;;;;;16.70;76.20;;;;;;10253024;28;96100;-62
2022/12/31 18:28:52;;;;;;;;;;;16.70;76.10;;;;;;10255059;28;92831;-62
2022/12/31 18:33:55;;;;;;;;;;;16.60;75.90;;;;;;10255522;28;93504;-62
2022/12/31 18:38:57;;;;;;;;;;;16.60;75.90;;;;;;10254364;28;93895;-62
2022/12/31 18:43:58;;;;;;;;;;;16.60;76.10;;;;;;10254573;28;93226;-62
2022/12/31 18:49:00;;;;;;;;;;;16.60;75.90;;;;;;10255473;28;94189;-62
2022/12/31 18:54:02;;;;;;;;;;;16.60;76.00;;;;;;10255111;28;94348;-62
2022/12/31 18:59:04;;;;;;;;;;;16.60;75.90;;;;;;10255388;28;92470;-62
2022/12/31 19:04:12;;;;;;;;;;;16.60;75.90;;;;;;10269299;28;94536;-62
2022/12/31 19:09:14;;;;;;;;;;;16.60;75.80;;;;;;10253311;28;94103;-62
2022/12/31 19:14:35;;;;;;;;;;;16.60;75.90;;;;;;10251250;28;97652;-62
2022/12/31 19:19:37;;;;;;;;;;;16.60;75.80;;;;;;10252386;28;94629;-62
2022/12/31 19:24:38;;;;;;;;;;;16.60;76.00;;;;;;10253203;28;93609;-62
2022/12/31 19:29:40;;;;;;;;;;;16.60;75.80;;;;;;10253346;28;94056;-62
2022/12/31 19:34:42;;;;;;;;;;;16.60;75.80;;;;;;10252773;28;93390;-62
2022/12/31 19:39:43;;;;;;;;;;;16.60;75.70;;;;;;10252384;28;94586;-62
2022/12/31 19:44:45;;;;;;;;;;;16.60;75.60;;;;;;10253036;28;94614;-62
2022/12/31 19:49:47;;;;;;;;;;;16.60;75.60;;;;;;10253138;28;92863;-62
2022/12/31 19:54:49;;;;;;;;;;;16.60;75.50;;;;;;10251772;28;92547;-61
2022/12/31 19:59:50;;;;;;;;;;;16.50;75.50;;;;;;10253128;28;93459;-62
2022/12/31 20:04:52;;;;;;;;;;;16.60;75.40;;;;;;10248066;28;96253;-62
2022/12/31 20:09:54;;;;;;;;;;;16.50;75.30;;;;;;10251930;28;94854;-62
2022/12/31 20:14:55;;;;;;;;;;;16.50;75.40;;;;;;10251012;28;94501;-62
2022/12/31 20:19:57;;;;;;;;;;;16.50;75.40;;;;;;10250342;28;93606;-62
2022/12/31 20:24:59;;;;;;;;;;;16.50;75.30;;;;;;10250776;28;94559;-61
2022/12/31 20:30:01;;;;;;;;;;;16.50;75.30;;;;;;10250821;28;93607;-62
2022/12/31 20:35:02;;;;;;;;;;;16.50;75.50;;;;;;10250609;28;94105;-61
2022/12/31 20:40:04;;;;;;;;;;;16.50;75.40;;;;;;10251014;28;92615;-62
2022/12/31 20:45:07;;;;;;;;;;;16.50;75.30;;;;;;10251388;28;93483;-62
2022/12/31 20:50:09;;;;;;;;;;;16.50;75.30;;;;;;10265262;28;93423;-62
2022/12/31 20:55:14;;;;;;;;;;;16.50;75.30;;;;;;10248498;28;96842;-62
2022/12/31 21:00:15;;;;;;;;;;;16.50;75.20;;;;;;10264642;28;92739;-62
2022/12/31 21:05:17;;;;;;;;;;;16.50;75.10;;;;;;10249606;28;93302;-62
2022/12/31 21:10:19;;;;;;;;;;;16.50;75.10;;;;;;10249802;28;93711;-62
2022/12/31 21:15:21;;;;;;;;;;;16.50;75.10;;;;;;10249808;28;93801;-62
2022/12/31 21:20:22;;;;;;;;;;;16.50;75.10;;;;;;10250128;28;94022;-62
2022/12/31 21:25:24;;;;;;;;;;;16.50;75.00;;;;;;10248636;28;93591;-62
2022/12/31 21:30:26;;;;;;;;;;;16.50;75.00;;;;;;10251375;28;94172;-62
2022/12/31 21:35:28;;;;;;;;;;;16.50;75.10;;;;;;10264567;28;92986;-62
2022/12/31 21:40:50;;;;;;;;;;;16.50;75.10;;;;;;10249515;28;93350;-62
2022/12/31 21:46:18;;;;;;;;;;;16.50;75.00;;;;;;10251952;28;96832;-61
2022/12/31 21:51:20;;;;;;;;;;;16.50;75.20;;;;;;10253459;28;92875;-62
2022/12/31 21:56:22;;;;;;;;;;;16.50;74.90;;;;;;10255752;28;93658;-61
2022/12/31 22:06:43;;;;;;;;;;;16.50;75.10;;;;;;10255237;28;93438;-61
2022/12/31 22:11:46;;;;;;;;;;;16.40;74.80;;;;;;10255928;28;94544;-61
2022/12/31 22:16:48;;;;;;;;;;;16.50;74.90;;;;;;10256477;28;94514;-62
2022/12/31 22:21:49;;;;;;;;;;;16.50;74.90;;;;;;10256391;28;92937;-62
2022/12/31 22:26:54;;;;;;;;;;;16.40;74.70;;;;;;10254850;28;94513;-62
2022/12/31 22:31:56;;;;;;;;;;;16.40;74.80;;;;;;10254505;28;93625;-61
2022/12/31 22:37:01;;;;;;;;;;;16.40;74.90;;;;;;10266580;28;95798;-61
2022/12/31 22:42:23;;;;;;;;;;;16.50;74.90;;;;;;10266862;28;96114;-62
2022/12/31 22:47:25;;;;;;;;;;;16.50;74.80;;;;;;10269091;28;94169;-62
2022/12/31 22:52:26;;;;;;;;;;;16.50;75.00;;;;;;10254446;28;94180;-62
2022/12/31 22:57:28;;;;;;;;;;;16.40;74.90;;;;;;10268135;28;94190;-62
2022/12/31 23:02:30;;;;;;;;;;;16.40;74.70;;;;;;10252835;28;93406;-61
2022/12/31 23:07:32;;;;;;;;;;;16.40;74.80;;;;;;10269575;28;94830;-62
2022/12/31 23:12:34;;;;;;;;;;;16.40;74.90;;;;;;10254347;28;93780;-61
2022/12/31 23:23:11;;;;;;;;;;;16.40;74.80;;;;;;10254115;28;93423;-61
2022/12/31 23:28:20;;;;;;;;;;;16.40;75.00;;;;;;10250536;28;96900;-61
2022/12/31 23:33:23;;;;;;;;;;;16.50;75.20;;;;;;10253865;28;94487;-61
2022/12/31 23:38:24;;;;;;;;;;;16.40;75.20;;;;;;10252929;28;94611;-61
2022/12/31 23:43:26;;;;;;;;;;;16.40;75.00;;;;;;10252788;28;93055;-60
2022/12/31 23:48:28;;;;;;;;;;;16.40;75.10;;;;;;10251959;28;93563;-61
2022/12/31 23:53:29;;;;;;;;;;;16.40;75.10;;;;;;10253019;28;94451;-61
2022/12/31 23:58:31;;;;;;;;;;;16.40;75.00;;;;;;10252872;28;93819;-61
